sensor_id;sensor_type;location;lat;lon;timestamp;P1;durP1;ratioP1;P2;durP2;ratioP2
2494;SDS011;1258;48.336;14.322;2024-02-26T06:31:28;2.10;;;1.90;;
2494;SDS011;1258;48.336;14.322;2024-02-26T06:33:55;1.50;;;1.40;;
2494;SDS011;1258;48.336;14.322;2024-02-26T06:36:22;1.83;;;1.73;;
2494;SDS011;1258;48.336;14.322;2024-02-26T06:38:49;1.60;;;1.50;;
2494;SDS011;1258;48.336;14.322;2024-02-26T06:41:17;1.70;;;1.60;;
2494;SDS011;1258;48.336;14.322;2024-02-26T06:43:43;1.53;;;1.43;;
2494;SDS011;1258;48.336;14.322;2024-02-26T06:46:10;1.80;;;1.70;;
2494;SDS011;1258;48.336;14.322;2024-02-26T06:48:38;1.77;;;1.67;;
2494;SDS011;1258;48.336;14.322;2024-02-26T06:51:05;2.00;;;1.80;;
2494;SDS011;1258;48.336;14.322;2024-02-26T06:53:32;1.53;;;1.43;;
2494;SDS011;1258;48.336;14.322;2024-02-26T06:55:59;1.80;;;1.70;;
2494;SDS011;1258;48.336;14.322;2024-02-26T06:58:26;2.00;;;1.90;;
2494;SDS011;1258;48.336;14.322;2024-02-26T07:00:53;1.70;;;1.60;;
2494;SDS011;1258;48.336;14.322;2024-02-26T07:03:19;2.20;;;2.00;;
2494;SDS011;1258;48.336;14.322;2024-02-26T07:05:49;1.53;;;1.43;;
2494;SDS011;1258;48.336;14.322;2024-02-26T07:08:16;1.33;;;1.20;;
2494;SDS011;1258;48.336;14.322;2024-02-26T07:10:42;1.70;;;1.60;;
2494;SDS011;1258;48.336;14.322;2024-02-26T07:13:09;1.70;;;1.60;;
2494;SDS011;1258;48.336;14.322;2024-02-26T07:15:36;1.97;;;1.87;;
2494;SDS011;1258;48.336;14.322;2024-02-26T07:18:03;2.17;;;1.97;;
2494;SDS011;1258;48.336;14.322;2024-02-26T07:20:30;1.70;;;1.60;;
2494;SDS011;1258;48.336;14.322;2024-02-26T07:22:59;2.20;;;2.00;;
2494;SDS011;1258;48.336;14.322;2024-02-26T07:25:26;2.07;;;1.87;;
2494;SDS011;1258;48.336;14.322;2024-02-26T07:27:52;1.70;;;1.50;;
2494;SDS011;1258;48.336;14.322;2024-02-26T07:30:19;1.40;;;1.30;;
2494;SDS011;1258;48.336;14.322;2024-02-26T07:32:46;1.27;;;1.10;;
2494;SDS011;1258;48.336;14.322;2024-02-26T07:35:13;1.80;;;1.50;;
2494;SDS011;1258;48.336;14.322;2024-02-26T07:37:40;2.30;;;2.10;;
2494;SDS011;1258;48.336;14.322;2024-02-26T07:40:09;2.27;;;1.80;;
2494;SDS011;1258;48.336;14.322;2024-02-26T07:42:36;1.80;;;1.70;;
2494;SDS011;1258;48.336;14.322;2024-02-26T07:45:04;1.57;;;1.47;;
2494;SDS011;1258;48.336;14.322;2024-02-26T07:47:32;2.00;;;1.83;;
2494;SDS011;1258;48.336;14.322;2024-02-26T07:49:59;2.13;;;1.93;;
2494;SDS011;1258;48.336;14.322;2024-02-26T07:52:26;2.00;;;1.80;;
2494;SDS011;1258;48.336;14.322;2024-02-26T07:54:53;4.53;;;1.60;;
2494;SDS011;1258;48.336;14.322;2024-02-26T07:57:21;1.90;;;1.77;;
2494;SDS011;1258;48.336;14.322;2024-02-26T07:59:48;2.30;;;2.10;;
2494;SDS011;1258;48.336;14.322;2024-02-26T08:02:15;2.60;;;2.30;;
2494;SDS011;1258;48.336;14.322;2024-02-26T08:04:42;2.30;;;2.10;;
2494;SDS011;1258;48.336;14.322;2024-02-26T08:07:09;2.30;;;2.00;;
2494;SDS011;1258;48.336;14.322;2024-02-26T08:09:36;1.70;;;1.60;;
2494;SDS011;1258;48.336;14.322;2024-02-26T08:12:03;2.10;;;1.50;;
2494;SDS011;1258;48.336;14.322;2024-02-26T08:14:32;2.37;;;1.70;;
2494;SDS011;1258;48.336;14.322;2024-02-26T08:16:58;2.23;;;1.80;;
2494;SDS011;1258;48.336;14.322;2024-02-26T08:19:25;1.67;;;1.53;;
2494;SDS011;1258;48.336;14.322;2024-02-26T08:21:52;1.80;;;1.63;;
2494;SDS011;1258;48.336;14.322;2024-02-26T08:24:19;2.03;;;1.80;;
2494;SDS011;1258;48.336;14.322;2024-02-26T08:26:46;2.30;;;2.10;;
2494;SDS011;1258;48.336;14.322;2024-02-26T08:29:13;2.23;;;2.03;;
2494;SDS011;1258;48.336;14.322;2024-02-26T08:31:41;2.47;;;2.27;;
2494;SDS011;1258;48.336;14.322;2024-02-26T08:34:09;1.87;;;1.50;;
2494;SDS011;1258;48.336;14.322;2024-02-26T08:36:35;2.30;;;1.80;;
2494;SDS011;1258;48.336;14.322;2024-02-26T08:39:02;2.63;;;2.00;;
2494;SDS011;1258;48.336;14.322;2024-02-26T08:41:29;1.97;;;1.70;;
2494;SDS011;1258;48.336;14.322;2024-02-26T08:43:56;1.60;;;1.50;;
2494;SDS011;1258;48.336;14.322;2024-02-26T08:46:24;1.73;;;1.53;;
2494;SDS011;1258;48.336;14.322;2024-02-26T08:48:52;2.10;;;1.80;;
2494;SDS011;1258;48.336;14.322;2024-02-26T08:51:19;2.50;;;2.10;;
2494;SDS011;1258;48.336;14.322;2024-02-26T08:53:46;2.20;;;2.00;;
2494;SDS011;1258;48.336;14.322;2024-02-26T08:56:12;2.40;;;2.10;;
2494;SDS011;1258;48.336;14.322;2024-02-26T08:58:41;3.40;;;2.70;;
2494;SDS011;1258;48.336;14.322;2024-02-26T09:01:08;5.03;;;3.30;;
2494;SDS011;1258;48.336;14.322;2024-02-26T09:03:35;5.00;;;4.07;;
2494;SDS011;1258;48.336;14.322;2024-02-26T09:06:04;6.20;;;5.30;;
2494;SDS011;1258;48.336;14.322;2024-02-26T09:08:31;7.40;;;6.40;;
2494;SDS011;1258;48.336;14.322;2024-02-26T09:10:58;7.87;;;7.07;;
2494;SDS011;1258;48.336;14.322;2024-02-26T09:13:25;11.03;;;9.83;;
2494;SDS011;1258;48.336;14.322;2024-02-26T09:15:52;8.13;;;7.33;;
2494;SDS011;1258;48.336;14.322;2024-02-26T09:18:19;8.50;;;7.70;;
2494;SDS011;1258;48.336;14.322;2024-02-26T09:20:46;8.70;;;7.80;;
2494;SDS011;1258;48.336;14.322;2024-02-26T09:23:15;9.47;;;8.47;;
2494;SDS011;1258;48.336;14.322;2024-02-26T09:25:41;10.23;;;9.23;;
2494;SDS011;1258;48.336;14.322;2024-02-26T09:28:08;7.90;;;6.93;;
2494;SDS011;1258;48.336;14.322;2024-02-26T09:30:35;6.20;;;5.60;;
2494;SDS011;1258;48.336;14.322;2024-02-26T09:33:03;5.80;;;5.20;;
2494;SDS011;1258;48.336;14.322;2024-02-26T09:35:31;4.70;;;4.17;;
2494;SDS011;1258;48.336;14.322;2024-02-26T09:37:58;3.20;;;2.90;;
2494;SDS011;1258;48.336;14.322;2024-02-26T09:40:26;3.97;;;3.13;;
2494;SDS011;1258;48.336;14.322;2024-02-26T09:42:53;3.37;;;2.80;;
2494;SDS011;1258;48.336;14.322;2024-02-26T09:45:25;3.80;;;3.30;;
2494;SDS011;1258;48.336;14.322;2024-02-26T09:47:55;5.20;;;4.57;;
2494;SDS011;1258;48.336;14.322;2024-02-26T09:50:22;6.27;;;5.57;;
2494;SDS011;1258;48.336;14.322;2024-02-26T09:52:49;5.40;;;4.40;;
2494;SDS011;1258;48.336;14.322;2024-02-26T09:55:16;5.33;;;3.60;;
2494;SDS011;1258;48.336;14.322;2024-02-26T09:57:46;5.27;;;4.63;;
2494;SDS011;1258;48.336;14.322;2024-02-26T10:00:14;4.90;;;4.27;;
2494;SDS011;1258;48.336;14.322;2024-02-26T10:02:44;3.63;;;3.03;;
2494;SDS011;1258;48.336;14.322;2024-02-26T10:05:12;3.67;;;3.27;;
2494;SDS011;1258;48.336;14.322;2024-02-26T10:07:42;3.23;;;2.70;;
2494;SDS011;1258;48.336;14.322;2024-02-26T10:10:11;2.93;;;2.30;;
2494;SDS011;1258;48.336;14.322;2024-02-26T10:12:38;2.43;;;2.03;;
2494;SDS011;1258;48.336;14.322;2024-02-26T10:15:06;2.07;;;1.87;;
2494;SDS011;1258;48.336;14.322;2024-02-26T10:17:34;2.30;;;2.00;;
2494;SDS011;1258;48.336;14.322;2024-02-26T10:20:11;3.93;;;3.17;;
2494;SDS011;1258;48.336;14.322;2024-02-26T10:22:40;4.90;;;4.37;;
2494;SDS011;1258;48.336;14.322;2024-02-26T10:25:08;5.50;;;4.37;;
2494;SDS011;1258;48.336;14.322;2024-02-26T10:27:35;4.10;;;3.47;;
2494;SDS011;1258;48.336;14.322;2024-02-26T10:30:02;5.03;;;4.53;;
2494;SDS011;1258;48.336;14.322;2024-02-26T10:32:31;3.70;;;3.40;;
2494;SDS011;1258;48.336;14.322;2024-02-26T10:34:58;2.80;;;2.60;;
2494;SDS011;1258;48.336;14.322;2024-02-26T10:37:25;2.47;;;2.27;;
2494;SDS011;1258;48.336;14.322;2024-02-26T10:39:52;5.73;;;2.07;;
2494;SDS011;1258;48.336;14.322;2024-02-26T10:42:19;2.50;;;2.00;;
2494;SDS011;1258;48.336;14.322;2024-02-26T10:44:46;3.10;;;2.80;;
2494;SDS011;1258;48.336;14.322;2024-02-26T10:47:14;3.20;;;2.50;;
2494;SDS011;1258;48.336;14.322;2024-02-26T10:49:46;2.90;;;2.60;;
2494;SDS011;1258;48.336;14.322;2024-02-26T10:52:14;1.97;;;1.77;;
2494;SDS011;1258;48.336;14.322;2024-02-26T10:54:43;2.27;;;1.90;;
2494;SDS011;1258;48.336;14.322;2024-02-26T10:57:14;2.17;;;1.93;;
2494;SDS011;1258;48.336;14.322;2024-02-26T10:59:44;2.10;;;1.73;;
2494;SDS011;1258;48.336;14.322;2024-02-26T11:02:11;2.20;;;1.77;;
2494;SDS011;1258;48.336;14.322;2024-02-26T11:04:39;2.77;;;2.47;;
2494;SDS011;1258;48.336;14.322;2024-02-26T11:07:09;2.10;;;1.80;;
2494;SDS011;1258;48.336;14.322;2024-02-26T11:09:37;3.30;;;2.20;;
2494;SDS011;1258;48.336;14.322;2024-02-26T11:12:08;2.27;;;2.00;;
2494;SDS011;1258;48.336;14.322;2024-02-26T11:14:38;1.97;;;1.57;;
2494;SDS011;1258;48.336;14.322;2024-02-26T11:17:07;2.30;;;2.03;;
2494;SDS011;1258;48.336;14.322;2024-02-26T11:19:35;2.40;;;1.80;;
2494;SDS011;1258;48.336;14.322;2024-02-26T11:22:04;1.90;;;1.70;;
2494;SDS011;1258;48.336;14.322;2024-02-26T11:24:32;1.80;;;1.67;;
2494;SDS011;1258;48.336;14.322;2024-02-26T11:27:00;1.97;;;1.77;;
2494;SDS011;1258;48.336;14.322;2024-02-26T11:29:29;2.50;;;1.70;;
2494;SDS011;1258;48.336;14.322;2024-02-26T11:32:03;2.57;;;2.30;;
2494;SDS011;1258;48.336;14.322;2024-02-26T11:34:31;2.20;;;2.00;;
2494;SDS011;1258;48.336;14.322;2024-02-26T11:36:58;2.20;;;1.90;;
2494;SDS011;1258;48.336;14.322;2024-02-26T11:39:37;2.60;;;2.10;;
2494;SDS011;1258;48.336;14.322;2024-02-26T11:42:05;2.90;;;2.40;;
2494;SDS011;1258;48.336;14.322;2024-02-26T11:44:33;2.10;;;1.90;;
2494;SDS011;1258;48.336;14.322;2024-02-26T11:47:09;2.10;;;1.37;;
2494;SDS011;1258;48.336;14.322;2024-02-26T11:49:36;2.17;;;1.53;;
2494;SDS011;1258;48.336;14.322;2024-02-26T11:52:04;2.20;;;1.70;;
2494;SDS011;1258;48.336;14.322;2024-02-26T11:54:43;1.90;;;1.70;;
2494;SDS011;1258;48.336;14.322;2024-02-26T11:57:20;2.27;;;1.97;;
2494;SDS011;1258;48.336;14.322;2024-02-26T11:59:48;1.60;;;1.37;;
2494;SDS011;1258;48.336;14.322;2024-02-26T12:05:09;2.63;;;2.00;;
2494;SDS011;1258;48.336;14.322;2024-02-26T12:07:39;2.80;;;1.70;;
2494;SDS011;1258;48.336;14.322;2024-02-26T12:10:22;1.87;;;1.67;;
2494;SDS011;1258;48.336;14.322;2024-02-26T12:12:54;5.03;;;3.33;;
2494;SDS011;1258;48.336;14.322;2024-02-26T12:15:24;3.27;;;2.97;;
2494;SDS011;1258;48.336;14.322;2024-02-26T12:17:56;3.67;;;3.37;;
2494;SDS011;1258;48.336;14.322;2024-02-26T12:20:23;3.83;;;3.43;;
2494;SDS011;1258;48.336;14.322;2024-02-26T12:22:49;3.50;;;3.20;;
2494;SDS011;1258;48.336;14.322;2024-02-26T12:25:21;3.40;;;3.10;;
2494;SDS011;1258;48.336;14.322;2024-02-26T12:27:50;4.27;;;3.87;;
2494;SDS011;1258;48.336;14.322;2024-02-26T12:30:17;3.10;;;2.80;;
2494;SDS011;1258;48.336;14.322;2024-02-26T12:32:45;3.40;;;3.10;;
2494;SDS011;1258;48.336;14.322;2024-02-26T12:35:13;3.33;;;3.03;;
2494;SDS011;1258;48.336;14.322;2024-02-26T12:37:40;3.73;;;3.43;;
2494;SDS011;1258;48.336;14.322;2024-02-26T12:40:08;2.80;;;2.60;;
2494;SDS011;1258;48.336;14.322;2024-02-26T12:42:37;2.33;;;2.13;;
2494;SDS011;1258;48.336;14.322;2024-02-26T12:45:05;2.93;;;2.63;;
2494;SDS011;1258;48.336;14.322;2024-02-26T12:47:37;2.90;;;2.67;;
2494;SDS011;1258;48.336;14.322;2024-02-26T12:50:05;2.70;;;2.50;;
2494;SDS011;1258;48.336;14.322;2024-02-26T12:52:33;3.20;;;2.80;;
2494;SDS011;1258;48.336;14.322;2024-02-26T12:55:01;3.30;;;2.70;;
2494;SDS011;1258;48.336;14.322;2024-02-26T12:57:29;3.10;;;2.47;;
2494;SDS011;1258;48.336;14.322;2024-02-26T12:59:57;3.33;;;2.53;;
2494;SDS011;1258;48.336;14.322;2024-02-26T13:02:25;3.30;;;2.57;;
2494;SDS011;1258;48.336;14.322;2024-02-26T13:04:52;3.00;;;2.70;;
2494;SDS011;1258;48.336;14.322;2024-02-26T13:07:20;2.60;;;2.20;;
2494;SDS011;1258;48.336;14.322;2024-02-26T13:09:47;3.37;;;2.33;;
2494;SDS011;1258;48.336;14.322;2024-02-26T13:12:16;1.90;;;1.70;;
2494;SDS011;1258;48.336;14.322;2024-02-26T13:14:43;2.60;;;2.30;;
2494;SDS011;1258;48.336;14.322;2024-02-26T13:17:11;2.50;;;2.10;;
2494;SDS011;1258;48.336;14.322;2024-02-26T13:19:48;2.27;;;2.07;;
2494;SDS011;1258;48.336;14.322;2024-02-26T13:22:15;2.80;;;2.13;;
2494;SDS011;1258;48.336;14.322;2024-02-26T13:24:42;2.63;;;2.17;;
2494;SDS011;1258;48.336;14.322;2024-02-26T13:27:09;2.03;;;1.77;;
2494;SDS011;1258;48.336;14.322;2024-02-26T13:29:36;2.80;;;2.30;;
2494;SDS011;1258;48.336;14.322;2024-02-26T13:32:03;2.80;;;2.40;;
2494;SDS011;1258;48.336;14.322;2024-02-26T13:34:32;3.27;;;2.90;;
2494;SDS011;1258;48.336;14.322;2024-02-26T13:37:00;3.00;;;2.80;;
2494;SDS011;1258;48.336;14.322;2024-02-26T13:39:28;3.10;;;2.77;;
2494;SDS011;1258;48.336;14.322;2024-02-26T13:41:55;3.13;;;2.83;;
2494;SDS011;1258;48.336;14.322;2024-02-26T13:44:22;3.20;;;2.83;;
2494;SDS011;1258;48.336;14.322;2024-02-26T13:46:50;4.00;;;3.60;;
2494;SDS011;1258;48.336;14.322;2024-02-26T13:49:19;5.70;;;4.60;;
2494;SDS011;1258;48.336;14.322;2024-02-26T13:51:48;4.60;;;4.10;;
2494;SDS011;1258;48.336;14.322;2024-02-26T13:54:15;4.40;;;3.83;;
2494;SDS011;1258;48.336;14.322;2024-02-26T13:56:41;4.80;;;4.00;;
2494;SDS011;1258;48.336;14.322;2024-02-26T13:59:09;6.27;;;4.40;;
2494;SDS011;1258;48.336;14.322;2024-02-26T14:01:36;4.40;;;4.00;;
2494;SDS011;1258;48.336;14.322;2024-02-26T14:04:03;4.17;;;3.67;;
2494;SDS011;1258;48.336;14.322;2024-02-26T14:06:30;3.87;;;3.33;;
2494;SDS011;1258;48.336;14.322;2024-02-26T14:08:58;2.80;;;2.20;;
2494;SDS011;1258;48.336;14.322;2024-02-26T14:11:25;2.10;;;1.70;;
2494;SDS011;1258;48.336;14.322;2024-02-26T14:13:54;2.00;;;1.77;;
2494;SDS011;1258;48.336;14.322;2024-02-26T14:16:21;2.00;;;1.67;;
2494;SDS011;1258;48.336;14.322;2024-02-26T14:18:47;2.47;;;1.50;;
2494;SDS011;1258;48.336;14.322;2024-02-26T14:21:14;1.97;;;1.57;;
2494;SDS011;1258;48.336;14.322;2024-02-26T14:23:41;1.90;;;1.60;;
2494;SDS011;1258;48.336;14.322;2024-02-26T14:26:11;3.17;;;2.23;;
2494;SDS011;1258;48.336;14.322;2024-02-26T14:28:37;2.47;;;1.93;;
2494;SDS011;1258;48.336;14.322;2024-02-26T14:31:05;2.17;;;1.97;;
2494;SDS011;1258;48.336;14.322;2024-02-26T14:33:37;3.10;;;2.80;;
2494;SDS011;1258;48.336;14.322;2024-02-26T14:36:04;3.93;;;3.30;;
2494;SDS011;1258;48.336;14.322;2024-02-26T14:38:32;4.30;;;3.80;;
2494;SDS011;1258;48.336;14.322;2024-02-26T14:40:58;4.10;;;3.70;;
2494;SDS011;1258;48.336;14.322;2024-02-26T14:43:27;3.47;;;3.17;;
2494;SDS011;1258;48.336;14.322;2024-02-26T14:45:54;4.47;;;2.70;;
2494;SDS011;1258;48.336;14.322;2024-02-26T14:48:20;3.87;;;3.33;;
2494;SDS011;1258;48.336;14.322;2024-02-26T14:50:47;3.10;;;2.80;;
2494;SDS011;1258;48.336;14.322;2024-02-26T14:53:15;3.47;;;3.17;;
2494;SDS011;1258;48.336;14.322;2024-02-26T14:55:42;2.63;;;2.43;;
2494;SDS011;1258;48.336;14.322;2024-02-26T14:58:09;2.13;;;1.90;;
2494;SDS011;1258;48.336;14.322;2024-02-26T15:00:38;2.20;;;2.00;;
2494;SDS011;1258;48.336;14.322;2024-02-26T15:03:05;3.07;;;2.77;;
2494;SDS011;1258;48.336;14.322;2024-02-26T15:05:33;4.83;;;3.70;;
2494;SDS011;1258;48.336;14.322;2024-02-26T15:08:00;3.93;;;3.60;;
2494;SDS011;1258;48.336;14.322;2024-02-26T15:10:27;4.00;;;2.90;;
2494;SDS011;1258;48.336;14.322;2024-02-26T15:12:54;4.73;;;3.83;;
2494;SDS011;1258;48.336;14.322;2024-02-26T15:15:21;4.23;;;3.83;;
2494;SDS011;1258;48.336;14.322;2024-02-26T15:17:50;4.90;;;4.00;;
2494;SDS011;1258;48.336;14.322;2024-02-26T15:20:17;4.00;;;3.70;;
2494;SDS011;1258;48.336;14.322;2024-02-26T15:22:44;4.83;;;4.33;;
2494;SDS011;1258;48.336;14.322;2024-02-26T15:25:11;3.80;;;3.40;;
2494;SDS011;1258;48.336;14.322;2024-02-26T15:27:38;3.73;;;3.33;;
2494;SDS011;1258;48.336;14.322;2024-02-26T15:30:05;3.67;;;3.37;;
2494;SDS011;1258;48.336;14.322;2024-02-26T15:32:33;3.77;;;3.37;;
2494;SDS011;1258;48.336;14.322;2024-02-26T15:35:03;2.63;;;2.43;;
2494;SDS011;1258;48.336;14.322;2024-02-26T15:37:30;2.67;;;2.47;;
2494;SDS011;1258;48.336;14.322;2024-02-26T15:39:57;3.73;;;2.87;;
2494;SDS011;1258;48.336;14.322;2024-02-26T15:42:24;3.50;;;3.20;;
2494;SDS011;1258;48.336;14.322;2024-02-26T15:44:51;3.77;;;3.47;;
2494;SDS011;1258;48.336;14.322;2024-02-26T15:47:18;2.83;;;2.50;;
2494;SDS011;1258;48.336;14.322;2024-02-26T15:49:45;3.93;;;3.53;;
2494;SDS011;1258;48.336;14.322;2024-02-26T15:52:13;4.73;;;4.23;;
2494;SDS011;1258;48.336;14.322;2024-02-26T15:54:40;5.00;;;4.20;;
2494;SDS011;1258;48.336;14.322;2024-02-26T15:57:07;4.30;;;3.90;;
2494;SDS011;1258;48.336;14.322;2024-02-26T15:59:34;4.77;;;4.27;;
2494;SDS011;1258;48.336;14.322;2024-02-26T16:02:01;4.43;;;4.00;;
2494;SDS011;1258;48.336;14.322;2024-02-26T16:04:28;4.57;;;4.17;;
2494;SDS011;1258;48.336;14.322;2024-02-26T16:06:56;4.57;;;4.07;;
2494;SDS011;1258;48.336;14.322;2024-02-26T16:09:27;4.27;;;3.87;;
2494;SDS011;1258;48.336;14.322;2024-02-26T16:11:55;4.73;;;4.33;;
2494;SDS011;1258;48.336;14.322;2024-02-26T16:14:26;4.70;;;4.30;;
2494;SDS011;1258;48.336;14.322;2024-02-26T16:17:01;5.50;;;5.00;;
2494;SDS011;1258;48.336;14.322;2024-02-26T16:19:35;5.30;;;4.80;;
2494;SDS011;1258;48.336;14.322;2024-02-26T16:22:03;5.03;;;4.63;;
2494;SDS011;1258;48.336;14.322;2024-02-26T16:24:31;5.57;;;4.90;;
2494;SDS011;1258;48.336;14.322;2024-02-26T16:26:58;5.47;;;4.97;;
2494;SDS011;1258;48.336;14.322;2024-02-26T16:29:25;7.03;;;6.33;;
2494;SDS011;1258;48.336;14.322;2024-02-26T16:31:52;15.17;;;13.70;;
2494;SDS011;1258;48.336;14.322;2024-02-26T16:34:19;57.63;;;49.43;;
2494;SDS011;1258;48.336;14.322;2024-02-26T16:36:46;16.37;;;14.80;;
2494;SDS011;1258;48.336;14.322;2024-02-26T16:39:13;6.20;;;5.70;;
2494;SDS011;1258;48.336;14.322;2024-02-26T16:41:41;5.27;;;4.77;;
2494;SDS011;1258;48.336;14.322;2024-02-26T16:44:08;5.30;;;4.80;;
2494;SDS011;1258;48.336;14.322;2024-02-26T16:46:35;5.40;;;5.00;;
2494;SDS011;1258;48.336;14.322;2024-02-26T16:49:02;4.47;;;4.07;;
2494;SDS011;1258;48.336;14.322;2024-02-26T17:49:41;6.33;;;5.73;;
2494;SDS011;1258;48.336;14.322;2024-02-26T17:52:08;5.13;;;4.63;;
2494;SDS011;1258;48.336;14.322;2024-02-26T17:54:34;5.80;;;5.30;;
2494;SDS011;1258;48.336;14.322;2024-02-26T17:57:02;5.63;;;5.13;;
2494;SDS011;1258;48.336;14.322;2024-02-26T17:59:30;4.93;;;4.50;;
2494;SDS011;1258;48.336;14.322;2024-02-26T18:01:57;5.20;;;4.80;;
2494;SDS011;1258;48.336;14.322;2024-02-26T18:04:24;5.70;;;5.20;;
2494;SDS011;1258;48.336;14.322;2024-02-26T18:06:52;5.67;;;5.17;;
2494;SDS011;1258;48.336;14.322;2024-02-26T18:09:19;6.30;;;5.17;;
2494;SDS011;1258;48.336;14.322;2024-02-26T18:11:46;5.37;;;4.87;;
2494;SDS011;1258;48.336;14.322;2024-02-26T18:14:13;5.53;;;4.93;;
2494;SDS011;1258;48.336;14.322;2024-02-26T18:16:40;5.83;;;5.33;;
2494;SDS011;1258;48.336;14.322;2024-02-26T18:19:07;5.13;;;4.73;;
2494;SDS011;1258;48.336;14.322;2024-02-26T18:21:34;5.17;;;4.77;;
2494;SDS011;1258;48.336;14.322;2024-02-26T18:24:02;5.13;;;4.63;;
2494;SDS011;1258;48.336;14.322;2024-02-26T18:26:29;4.80;;;4.40;;
2494;SDS011;1258;48.336;14.322;2024-02-26T18:28:56;5.70;;;5.20;;
2494;SDS011;1258;48.336;14.322;2024-02-26T18:31:23;5.33;;;4.83;;
2494;SDS011;1258;48.336;14.322;2024-02-26T18:33:50;5.13;;;4.73;;
2494;SDS011;1258;48.336;14.322;2024-02-26T18:36:17;4.73;;;4.33;;
2494;SDS011;1258;48.336;14.322;2024-02-26T18:38:47;5.40;;;4.90;;
2494;SDS011;1258;48.336;14.322;2024-02-26T18:41:19;5.70;;;4.27;;
2494;SDS011;1258;48.336;14.322;2024-02-26T18:43:47;5.00;;;4.60;;
2494;SDS011;1258;48.336;14.322;2024-02-26T18:46:14;5.10;;;4.60;;
2494;SDS011;1258;48.336;14.322;2024-02-26T18:48:41;5.00;;;4.60;;
2494;SDS011;1258;48.336;14.322;2024-02-26T18:51:08;4.30;;;3.90;;
2494;SDS011;1258;48.336;14.322;2024-02-26T18:53:36;5.50;;;4.83;;
2494;SDS011;1258;48.336;14.322;2024-02-26T18:56:04;4.33;;;3.93;;
2494;SDS011;1258;48.336;14.322;2024-02-26T18:58:33;4.80;;;4.40;;
2494;SDS011;1258;48.336;14.322;2024-02-26T19:01:00;4.80;;;4.40;;
2494;SDS011;1258;48.336;14.322;2024-02-26T19:03:27;4.93;;;4.53;;
2494;SDS011;1258;48.336;14.322;2024-02-26T19:05:54;4.70;;;4.30;;
2494;SDS011;1258;48.336;14.322;2024-02-26T19:08:21;4.33;;;3.93;;
2494;SDS011;1258;48.336;14.322;2024-02-26T19:10:48;5.27;;;4.87;;
2494;SDS011;1258;48.336;14.322;2024-02-26T19:13:15;4.63;;;4.27;;
2494;SDS011;1258;48.336;14.322;2024-02-26T19:15:43;4.97;;;4.50;;
2494;SDS011;1258;48.336;14.322;2024-02-26T19:18:11;5.87;;;5.37;;
2494;SDS011;1258;48.336;14.322;2024-02-26T19:20:38;5.60;;;5.17;;
2494;SDS011;1258;48.336;14.322;2024-02-26T19:23:05;5.93;;;5.33;;
2494;SDS011;1258;48.336;14.322;2024-02-26T19:25:33;4.93;;;4.53;;
2494;SDS011;1258;48.336;14.322;2024-02-26T19:28:00;6.80;;;5.73;;
2494;SDS011;1258;48.336;14.322;2024-02-26T19:30:26;5.23;;;4.73;;
2494;SDS011;1258;48.336;14.322;2024-02-26T19:32:55;5.20;;;4.80;;
2494;SDS011;1258;48.336;14.322;2024-02-26T19:35:22;5.13;;;4.73;;
2494;SDS011;1258;48.336;14.322;2024-02-26T19:37:48;5.13;;;4.40;;
2494;SDS011;1258;48.336;14.322;2024-02-26T19:40:15;5.73;;;5.23;;
2494;SDS011;1258;48.336;14.322;2024-02-26T19:42:42;5.67;;;5.17;;
2494;SDS011;1258;48.336;14.322;2024-02-26T19:45:09;4.87;;;4.47;;
2494;SDS011;1258;48.336;14.322;2024-02-26T19:47:37;6.17;;;5.50;;
2494;SDS011;1258;48.336;14.322;2024-02-26T19:50:06;5.80;;;5.30;;
2494;SDS011;1258;48.336;14.322;2024-02-26T19:52:34;5.17;;;4.77;;
2494;SDS011;1258;48.336;14.322;2024-02-26T19:55:01;4.87;;;4.47;;
2494;SDS011;1258;48.336;14.322;2024-02-26T19:57:29;5.73;;;5.23;;
2494;SDS011;1258;48.336;14.322;2024-02-26T19:59:56;5.13;;;4.73;;
2494;SDS011;1258;48.336;14.322;2024-02-26T20:02:23;5.60;;;5.17;;
2494;SDS011;1258;48.336;14.322;2024-02-26T20:04:50;5.60;;;5.10;;
2494;SDS011;1258;48.336;14.322;2024-02-26T20:07:18;5.60;;;5.10;;
2494;SDS011;1258;48.336;14.322;2024-02-26T20:09:45;6.47;;;5.87;;
2494;SDS011;1258;48.336;14.322;2024-02-26T20:12:12;6.03;;;5.53;;
2494;SDS011;1258;48.336;14.322;2024-02-26T20:14:41;6.63;;;6.03;;
2494;SDS011;1258;48.336;14.322;2024-02-26T20:17:09;6.60;;;6.00;;
2494;SDS011;1258;48.336;14.322;2024-02-26T20:19:36;7.00;;;6.30;;
2494;SDS011;1258;48.336;14.322;2024-02-26T20:22:03;8.00;;;7.30;;
2494;SDS011;1258;48.336;14.322;2024-02-26T20:24:31;7.70;;;7.00;;
2494;SDS011;1258;48.336;14.322;2024-02-26T20:26:58;8.90;;;8.10;;
2494;SDS011;1258;48.336;14.322;2024-02-26T20:29:25;13.30;;;8.93;;
2494;SDS011;1258;48.336;14.322;2024-02-26T20:31:52;10.03;;;9.03;;
2494;SDS011;1258;48.336;14.322;2024-02-26T20:34:19;12.90;;;10.50;;
2494;SDS011;1258;48.336;14.322;2024-02-26T20:36:45;18.10;;;13.53;;
2494;SDS011;1258;48.336;14.322;2024-02-26T20:39:12;21.40;;;15.53;;
2494;SDS011;1258;48.336;14.322;2024-02-26T20:41:40;26.90;;;18.00;;
2494;SDS011;1258;48.336;14.322;2024-02-26T20:44:08;17.87;;;13.80;;
2494;SDS011;1258;48.336;14.322;2024-02-26T20:46:38;32.63;;;23.10;;
2494;SDS011;1258;48.336;14.322;2024-02-26T20:49:06;23.33;;;17.43;;
2494;SDS011;1258;48.336;14.322;2024-02-26T20:51:33;32.40;;;24.70;;
2494;SDS011;1258;48.336;14.322;2024-02-26T20:54:00;24.43;;;19.53;;
2494;SDS011;1258;48.336;14.322;2024-02-26T20:56:33;39.17;;;28.07;;
2494;SDS011;1258;48.336;14.322;2024-02-26T20:59:01;18.67;;;15.03;;
2494;SDS011;1258;48.336;14.322;2024-02-26T21:01:28;23.60;;;16.60;;
2494;SDS011;1258;48.336;14.322;2024-02-26T21:03:55;30.13;;;23.07;;
2494;SDS011;1258;48.336;14.322;2024-02-26T21:06:22;30.00;;;22.50;;
2494;SDS011;1258;48.336;14.322;2024-02-26T21:08:49;16.37;;;13.97;;
2494;SDS011;1258;48.336;14.322;2024-02-26T21:11:17;40.77;;;30.63;;
2494;SDS011;1258;48.336;14.322;2024-02-26T21:13:44;27.40;;;20.20;;
2494;SDS011;1258;48.336;14.322;2024-02-26T21:16:13;24.53;;;18.23;;
2494;SDS011;1258;48.336;14.322;2024-02-26T21:18:40;20.77;;;16.67;;
2494;SDS011;1258;48.336;14.322;2024-02-26T21:21:08;15.87;;;12.37;;
2494;SDS011;1258;48.336;14.322;2024-02-26T21:23:36;14.60;;;11.77;;
2494;SDS011;1258;48.336;14.322;2024-02-26T21:26:03;15.23;;;13.00;;
2494;SDS011;1258;48.336;14.322;2024-02-26T21:28:30;17.23;;;15.47;;
2494;SDS011;1258;48.336;14.322;2024-02-26T21:30:57;11.10;;;10.10;;
2494;SDS011;1258;48.336;14.322;2024-02-26T21:33:25;9.90;;;9.00;;
2494;SDS011;1258;48.336;14.322;2024-02-26T21:35:52;8.80;;;8.00;;
2494;SDS011;1258;48.336;14.322;2024-02-26T21:38:21;6.90;;;6.33;;
2494;SDS011;1258;48.336;14.322;2024-02-26T21:40:48;7.00;;;6.37;;
2494;SDS011;1258;48.336;14.322;2024-02-26T21:43:15;7.50;;;6.70;;
2494;SDS011;1258;48.336;14.322;2024-02-26T21:45:42;6.70;;;6.10;;
2494;SDS011;1258;48.336;14.322;2024-02-26T21:48:09;6.90;;;6.30;;
2494;SDS011;1258;48.336;14.322;2024-02-26T21:50:37;5.83;;;5.33;;
2494;SDS011;1258;48.336;14.322;2024-02-26T21:53:04;6.80;;;6.20;;
2494;SDS011;1258;48.336;14.322;2024-02-26T21:55:31;6.83;;;6.20;;
2494;SDS011;1258;48.336;14.322;2024-02-26T21:57:58;6.43;;;5.93;;
2494;SDS011;1258;48.336;14.322;2024-02-26T22:00:24;5.77;;;5.27;;
2494;SDS011;1258;48.336;14.322;2024-02-26T22:02:51;6.47;;;5.87;;
2494;SDS011;1258;48.336;14.322;2024-02-26T22:05:18;6.63;;;6.03;;
2494;SDS011;1258;48.336;14.322;2024-02-26T22:07:46;6.73;;;6.13;;
2494;SDS011;1258;48.336;14.322;2024-02-26T22:10:13;6.23;;;5.63;;
2494;SDS011;1258;48.336;14.322;2024-02-26T22:12:40;5.87;;;5.27;;
2494;SDS011;1258;48.336;14.322;2024-02-26T22:15:07;6.43;;;5.93;;
2494;SDS011;1258;48.336;14.322;2024-02-26T22:17:35;6.43;;;5.83;;
2494;SDS011;1258;48.336;14.322;2024-02-26T22:20:06;8.90;;;8.03;;
2494;SDS011;1258;48.336;14.322;2024-02-26T22:22:34;5.80;;;5.30;;
2494;SDS011;1258;48.336;14.322;2024-02-26T22:25:03;5.60;;;5.10;;
2494;SDS011;1258;48.336;14.322;2024-02-26T22:27:31;4.60;;;4.20;;
2494;SDS011;1258;48.336;14.322;2024-02-26T22:29:58;6.00;;;5.40;;
2494;SDS011;1258;48.336;14.322;2024-02-26T22:32:24;4.77;;;4.30;;
2494;SDS011;1258;48.336;14.322;2024-02-26T22:34:51;6.20;;;5.20;;